Latest Weather Observations for Whyalla

IDS60801

Issued at 8:01 pm CST Thursday 3 September 2015 (issued every 30 minutes, with the page automatically refreshed every 10 minutes)

About weather observations | Map of weather stations | Latest weather observations for SA | Other Formats
Station Details ID: 018120 Name: WHYALLA AERO Lat: -33.05 Lon: 137.52 Height: 6.5 m
Data from the previous 72 hours. | See also: Recent months at Whyalla
Date/Time
CST
Temp
°C
App
Temp
°C
Dew
Point
Rel
Hum
%
Delta-T
°C
Wind Press
QNH
hPa
Press
MSL
hPa
Rain
since 9 am
mm
Dir
 
Spd
km/h
Gust
km/h
Spd
kts
Gust
kts
03/08:00pm 12.5 9.5 10.6 88 1.0 SSW 17 24 9 13 1025.7 1025.7 0.0
03/07:30pm 12.9 9.4 10.8 87 1.1 SSW 20 28 11 15 1025.3 1025.3 0.0
03/07:00pm 13.3 9.7 10.5 83 1.5 SSW 20 28 11 15 1025.0 1025.0 0.0
03/06:30pm 13.3 9.0 10.7 84 1.4 SSW 24 30 13 16 1024.6 1024.6 0.0
03/06:00pm 13.2 8.2 10.9 86 1.2 S 28 35 15 19 1024.2 1024.2 0.0
03/05:30pm 13.9 8.3 10.3 79 1.9 SSW 30 39 16 21 1023.8 1023.8 0.0
03/05:00pm 14.2 9.2 11.0 81 1.7 S 28 37 15 20 1023.7 1023.7 0.0
03/04:30pm 14.2 8.8 10.8 80 1.8 SSW 30 39 16 21 1023.1 1023.1 0.0
03/04:00pm 14.4 9.2 10.4 77 2.1 SSW 28 35 15 19 1023.1 1023.1 0.0
03/03:30pm 14.6 9.2 10.8 78 2.0 SSW 30 37 16 20 1022.8 1022.8 0.0
03/03:00pm 15.2 9.5 11.2 77 2.1 SSW 32 39 17 21 1022.4 1022.4 0.0
03/02:30pm 15.0 9.3 11.2 78 2.0 SSW 32 41 17 22 1022.2 1022.2 0.0
03/02:00pm 14.6 8.9 11.0 79 1.9 SSW 32 43 17 23 1022.2 1022.2 0.0
03/01:30pm 15.0 9.4 11.4 79 1.9 SSW 32 43 17 23 1022.2 1022.2 0.0
03/01:00pm 14.9 9.3 11.5 80 1.8 S 32 41 17 22 1022.2 1022.2 0.0
03/12:30pm 15.1 9.5 11.5 79 1.9 SSW 32 43 17 23 1022.3 1022.3 0.0
03/12:06pm 14.5 8.7 10.7 78 2.0 S 32 44 17 24 1022.4 1022.4 0.0
03/12:00pm 14.6 8.9 11.2 80 1.8 S 32 43 17 23 1022.5 1022.5 0.0
03/11:35am 15.2 9.2 12.1 82 1.7 S 35 44 19 24 1022.3 1022.3 0.0
03/11:30am 15.1 9.5 12.1 82 1.6 S 33 44 18 24 1022.3 1022.3 0.0
03/11:00am 15.1 10.6 12.6 85 1.4 S 28 37 15 20 1022.4 1022.4 0.0
03/10:30am 14.2 10.2 12.9 92 0.7 SSW 26 35 14 19 1022.1 1022.1 0.0
03/10:26am 13.8 9.8 12.9 94 0.5 SSW 26 32 14 17 1022.1 1022.1 0.0
03/10:09am 13.6 7.7 12.3 92 0.7 SSW 35 46 19 25 1022.1 1022.1 0.0
03/10:00am 14.3 9.2 12.0 86 1.2 S 30 44 16 24 1021.9 1021.9 0.0
03/09:30am 13.8 9.2 12.4 91 0.8 SSW 28 37 15 20 1021.7 1021.7 0.0
03/09:15am 13.8 9.2 12.4 91 0.8 SSW 28 35 15 19 1021.4 1021.4 0.0
03/09:00am 13.7 9.7 12.9 95 0.4 SSW 26 37 14 20 1021.1 1021.1 2.4
03/08:46am 13.1 9.0 12.6 97 0.3 SSW 26 35 14 19 1020.8 1020.8 2.4
03/08:40am 12.9 8.3 12.4 97 0.3 SSW 28 37 15 20 1020.7 1020.7 2.4
03/08:30am 12.5 7.1 12.2 98 0.2 SSW 32 44 17 24 1020.6 1020.6 2.4
03/08:02am 12.6 8.7 12.0 96 0.3 SW 24 33 13 18 1019.9 1019.9 2.0
03/08:00am 12.6 8.7 12.0 96 0.3 SW 24 33 13 18 1019.8 1019.8 2.0
03/07:44am 12.6 8.2 11.8 95 0.4 SW 26 32 14 17 1019.3 1019.3 2.0
03/07:30am 12.7 9.0 11.6 93 0.6 SW 22 30 12 16 1018.9 1018.9 2.0
03/07:00am 11.8 8.5 11.0 95 0.4 SW 19 30 10 16 1018.4 1018.4 2.0
03/06:30am 9.1 6.7 8.5 96 0.3 W 11 13 6 7 1018.1 1018.1 2.0
03/06:00am 9.9 6.8 9.0 94 0.4 SW 15 20 8 11 1017.4 1017.4 2.0
03/05:30am 10.3 7.0 9.5 95 0.4 SW 17 22 9 12 1016.9 1016.9 2.0
03/05:00am 9.7 7.0 9.1 96 0.3 WSW 13 15 7 8 1016.5 1016.5 2.0
03/04:30am 9.9 7.2 9.1 95 0.4 WSW 13 17 7 9 1016.1 1016.1 2.0
03/04:00am 10.0 7.8 9.2 95 0.4 WSW 11 15 6 8 1015.8 1015.8 2.0
03/03:30am 10.4 7.9 9.6 95 0.4 WSW 13 19 7 10 1015.2 1015.2 2.0
03/03:00am 9.9 6.8 9.0 94 0.4 WSW 15 17 8 9 1014.8 1014.8 2.0
03/02:30am 11.0 7.1 9.4 90 0.8 SW 20 28 11 15 1014.5 1014.5 2.0
03/02:00am 11.4 6.8 9.8 90 0.8 SW 24 35 13 19 1014.1 1014.1 2.0
03/01:30am 10.7 7.0 9.5 92 0.6 SW 19 24 10 13 1014.0 1014.0 2.0
03/01:00am 11.3 7.0 9.4 88 1.0 SW 22 30 12 16 1013.8 1013.8 2.0
03/12:30am 11.5 6.4 9.1 85 1.2 SW 26 37 14 20 1013.5 1013.5 2.0
03/12:00am 11.5 7.6 9.6 88 1.0 SW 20 26 11 14 1013.3 1013.3 2.0
 
Date/Time
CST
Temp
°C
App
Temp
°C
Dew
Point
Rel
Hum
%
Delta-T
°C
Wind Press
QNH
hPa
Press
MSL
hPa
Rain
since 9 am
mm
Dir
 
Spd
km/h
Gust
km/h
Spd
kts
Gust
kts
02/11:30pm 11.2 7.3 9.5 89 0.9 WSW 20 28 11 15 1012.6 1012.6 2.0
02/11:00pm 11.2 7.3 9.3 88 1.0 WSW 20 32 11 17 1012.3 1012.3 2.0
02/10:30pm 11.3 7.3 9.2 87 1.1 WSW 20 33 11 18 1011.5 1011.5 2.0
02/10:00pm 11.3 6.9 9.0 86 1.1 WSW 22 32 12 17 1010.7 1010.7 2.0
02/09:30pm 11.5 6.3 8.9 84 1.3 SW 26 33 14 18 1010.1 1010.1 2.0
02/09:00pm 11.7 6.4 8.6 81 1.5 WSW 26 39 14 21 1009.4 1009.4 2.0
02/08:30pm 12.0 5.6 8.5 79 1.7 SW 32 43 17 23 1008.6 1008.6 2.0
02/08:00pm 12.3 5.8 8.0 75 2.1 WSW 32 48 17 26 1007.9 1007.9 2.0
02/07:30pm 12.7 6.2 8.2 74 2.2 WSW 32 41 17 22 1007.3 1007.3 2.0
02/07:00pm 12.6 8.1 8.7 77 1.9 WSW 22 33 12 18 1006.6 1006.6 2.0
02/06:30pm 13.1 7.4 8.4 73 2.3 WSW 28 41 15 22 1005.8 1005.8 2.0
02/06:00pm 13.6 7.1 8.0 69 2.8 WSW 32 43 17 23 1005.0 1005.0 2.0
02/05:30pm 13.9 8.3 8.9 72 2.5 WSW 28 44 15 24 1004.2 1004.2 2.0
02/05:19pm 13.7 8.2 9.2 74 2.3 WSW 28 46 15 25 1004.0 1004.0 2.0
02/05:00pm 14.3 7.9 9.3 72 2.6 W 33 50 18 27 1003.6 1003.6 2.0
02/04:30pm 14.1 7.7 9.5 74 2.4 W 33 50 18 27 1002.7 1002.7 2.0
02/04:10pm 13.8 8.1 9.8 77 2.1 WNW 30 48 16 26 1002.3 1002.3 2.0
02/04:00pm 14.0 7.7 9.8 76 2.2 WNW 33 46 18 25 1002.1 1002.1 2.0
02/03:54pm 14.1 7.6 10.3 78 2.0 WNW 35 54 19 29 1002.1 1002.1 2.0
02/03:30pm 13.5 7.2 11.0 85 1.3 WNW 35 48 19 26 1001.8 1001.8 2.0
02/03:00pm 13.7 8.1 11.6 87 1.1 WNW 32 44 17 24 1002.0 1002.0 1.8
02/02:48pm 13.5 8.8 12.1 91 0.8 WNW 28 41 15 22 1002.2 1002.2 1.8
02/02:31pm 13.7 8.4 11.2 85 1.3 NW 30 41 16 22 1002.0 1002.0 1.0
02/02:30pm 13.8 8.5 11.3 85 1.3 NW 30 41 16 22 1002.0 1002.0 0.8
02/02:15pm 14.8 8.4 10.8 77 2.1 NNW 35 54 19 29 1001.6 1001.6 0.0
02/02:00pm 15.4 9.1 11.0 75 2.3 NNW 35 50 19 27 1001.7 1001.7 0.0
02/01:30pm 15.3 7.3 10.3 72 2.6 NNW 43 54 23 29 1002.7 1002.7 0.0
02/01:00pm 15.2 7.2 8.9 66 3.2 NW 41 59 22 32 1003.4 1003.4 0.0
02/12:57pm 15.4 7.9 9.3 67 3.1 NW 39 59 21 32 1003.4 1003.4 0.0
02/12:30pm 16.5 8.3 9.7 64 3.6 NW 43 56 23 30 1004.0 1004.0 0.0
02/12:06pm 15.8 7.2 8.1 60 3.9 NW 43 61 23 33 1004.2 1004.2 0.0
02/12:00pm 16.0 7.9 8.5 61 3.8 NW 41 52 22 28 1004.3 1004.3 0.0
02/11:39am 15.5 7.2 7.8 60 3.8 NW 41 65 22 35 1004.7 1004.7 0.0
02/11:30am 15.1 6.5 8.1 63 3.5 NW 43 54 23 29 1004.9 1004.9 0.0
02/11:12am 15.3 7.6 8.5 64 3.4 NW 39 57 21 31 1005.4 1005.4 0.0
02/11:00am 13.8 6.6 7.6 66 3.0 NW 35 50 19 27 1005.6 1005.6 0.0
02/10:30am 13.1 5.0 7.1 67 2.9 NW 39 54 21 29 1006.0 1006.0 0.0
02/10:00am 12.9 5.5 6.9 67 2.9 NNW 35 50 19 27 1006.3 1006.3 0.0
02/09:30am 12.7 5.0 7.2 69 2.7 NNW 37 50 20 27 1006.3 1006.3 0.0
02/09:00am 12.3 5.1 7.6 73 2.3 NNW 35 48 19 26 1006.5 1006.5 2.6
02/08:30am 12.0 4.8 7.5 74 2.2 NNW 35 48 19 26 1006.5 1006.5 2.6
02/08:00am 11.1 5.7 8.1 82 1.5 N 26 33 14 18 1006.6 1006.6 2.6
02/07:30am 10.7 6.2 8.5 86 1.1 N 22 28 12 15 1006.7 1006.7 2.6
02/07:00am 9.9 5.9 8.2 89 0.8 N 19 24 10 13 1006.6 1006.6 2.6
02/06:30am 9.8 5.6 8.2 90 0.8 N 20 26 11 14 1006.2 1006.2 2.6
02/06:00am 10.2 6.2 8.3 88 0.9 N 19 24 10 13 1006.4 1006.4 2.6
02/05:30am 10.5 6.6 8.6 88 0.9 NNW 19 26 10 14 1006.6 1006.6 2.6
02/05:00am 10.7 6.8 8.8 88 0.9 N 19 26 10 14 1006.2 1006.2 2.6
02/04:30am 11.1 7.3 9.0 87 1.0 N 19 26 10 14 1006.3 1006.3 2.6
02/04:00am 11.2 7.4 9.1 87 1.0 N 19 28 10 15 1006.5 1006.5 2.6
02/03:30am 11.0 7.7 9.6 91 0.7 N 17 22 9 12 1007.1 1007.1 2.6
02/03:00am 10.9 7.9 9.3 90 0.8 N 15 19 8 10 1007.3 1007.3 2.4
02/02:30am 11.5 7.6 9.6 88 1.0 N 20 28 11 15 1007.9 1007.9 2.2
02/02:00am 12.1 9.6 9.8 86 1.2 NNE 13 19 7 10 1007.6 1007.6 1.8
02/01:30am 12.1 9.3 10.0 87 1.1 N 15 20 8 11 1008.1 1008.1 1.8
02/01:00am 12.0 9.9 9.7 86 1.2 N 11 15 6 8 1008.0 1008.0 1.8
02/12:30am 11.7 9.0 9.1 84 1.3 NNW 13 15 7 8 1008.4 1008.4 1.8
02/12:00am 12.3 7.0 8.6 78 1.8 WNW 26 37 14 20 1008.6 1008.6 1.8
 
Date/Time
CST
Temp
°C
App
Temp
°C
Dew
Point
Rel
Hum
%
Delta-T
°C
Wind Press
QNH
hPa
Press
MSL
hPa
Rain
since 9 am
mm
Dir
 
Spd
km/h
Gust
km/h
Spd
kts
Gust
kts
01/11:30pm 12.5 7.8 7.8 73 2.3 N 22 32 12 17 1007.9 1007.9 1.8
01/11:00pm 13.0 7.6 7.9 71 2.5 N 26 35 14 19 1007.6 1007.6 1.8
01/10:30pm 13.3 7.6 8.4 72 2.4 N 28 41 15 22 1007.4 1007.4 1.8
01/10:29pm 13.3 7.7 8.6 73 2.4 N 28 41 15 22 1007.4 1007.4 1.8
01/10:00pm 12.6 9.3 9.4 81 1.6 N 17 22 9 12 1007.6 1007.6 1.8
01/09:30pm 13.2 8.1 9.1 76 2.1 N 26 37 14 20 1007.4 1007.4 1.8
01/09:00pm 12.3 9.2 10.2 87 1.1 N 17 20 9 11 1007.6 1007.6 1.8
01/08:37pm 13.6 8.1 9.3 75 2.2 NNW 28 50 15 27 1008.2 1008.2 0.8
01/08:30pm 14.2 9.7 8.6 69 2.8 NW 22 28 12 15 1007.8 1007.8 0.4
01/08:00pm 17.0 11.4 5.6 47 5.5 N 24 32 13 17 1006.1 1006.1 0.0
01/07:30pm 16.6 10.2 5.3 47 5.4 N 28 41 15 22 1005.8 1005.8 0.0
01/07:00pm 16.7 10.6 4.7 45 5.7 N 26 35 14 19 1005.9 1005.9 0.0
01/06:30pm 16.6 10.7 4.0 43 5.9 N 24 35 13 19 1005.9 1005.9 0.0
01/06:00pm 16.9 10.9 3.6 41 6.2 N 24 33 13 18 1006.0 1006.0 0.0
01/05:30pm 17.5 11.1 3.4 39 6.6 N 26 35 14 19 1005.9 1005.9 0.0
01/05:00pm 17.7 10.4 4.6 42 6.2 N 32 46 17 25 1005.9 1005.9 0.0
01/04:30pm 17.5 10.6 6.4 48 5.5 N 32 43 17 23 1006.4 1006.4 0.0
01/04:00pm 17.5 11.9 8.9 57 4.5 N 28 39 15 21 1006.6 1006.6 0.0
01/03:30pm 16.0 9.8 9.4 65 3.4 N 32 43 17 23 1007.4 1007.4 0.0
01/03:00pm 16.7 9.7 8.4 58 4.2 N 35 57 19 31 1007.9 1007.9 0.0
01/02:59pm 16.9 10.3 8.6 58 4.3 N 33 57 18 31 1007.9 1007.9 0.0
01/02:30pm 16.6 9.6 8.3 58 4.2 N 35 48 19 26 1008.1 1008.1 0.0
01/02:10pm 17.3 9.1 8.2 55 4.6 N 41 59 22 32 1008.4 1008.4 0.0
01/02:00pm 17.6 9.4 8.2 54 4.8 N 41 57 22 31 1008.7 1008.7 0.0
01/01:30pm 17.2 8.5 7.5 53 4.9 N 43 59 23 32 1009.3 1009.3 0.0
01/01:00pm 17.6 8.9 4.2 41 6.3 N 39 50 21 27 1009.8 1009.8 0.0
01/12:30pm 19.3 10.1 1.3 30 8.1 N 39 54 21 29 1010.5 1010.5 0.0
01/12:04pm 19.2 10.3 0.8 29 8.2 N 37 56 20 30 1011.0 1011.0 0.0
01/12:00pm 19.4 10.9 0.9 29 8.3 N 35 48 19 26 1011.0 1011.0 0.0
01/11:31am 18.7 10.6 -0.2 28 8.2 N 32 50 17 27 1011.2 1011.2 0.0
01/11:30am 18.9 10.8 0.0 28 8.3 N 32 44 17 24 1011.3 1011.3 0.0
01/11:00am 19.3 11.2 0.8 29 8.3 N 33 44 18 24 1011.3 1011.3 0.0
01/10:30am 18.1 10.8 -0.2 29 7.9 N 28 39 15 21 1011.6 1011.6 0.0
01/10:00am 17.3 10.5 0.5 32 7.3 N 26 37 14 20 1012.0 1012.0 0.0
01/09:30am 16.5 10.0 0.2 33 7.0 N 24 35 13 19 1012.2 1012.2 0.0
01/09:00am 16.1 9.7 0.7 35 6.7 N 24 35 13 19 1012.6 1012.6 0.0
01/08:30am 15.7 9.2 0.3 35 6.6 N 24 32 13 17 1012.3 1012.3 0.0
01/08:00am 15.0 9.0 0.8 38 6.1 N 22 33 12 18 1012.1 1012.1 0.0
01/07:30am 15.0 9.4 1.5 40 5.9 N 20 28 11 15 1012.3 1012.3 0.0
01/07:00am 11.8 8.7 3.6 57 3.6 NW 9 17 5 9 1012.5 1012.5 0.0
01/06:30am 14.1 9.7 2.7 46 5.1 N 15 20 8 11 1012.3 1012.3 0.0
01/06:00am 12.6 8.7 3.5 54 4.1 N 13 15 7 8 1012.2 1012.2 0.0
01/05:30am 12.0 8.1 3.5 56 3.8 N 13 17 7 9 1012.5 1012.5 0.0
01/05:00am 12.5 7.9 3.7 55 3.9 NNW 17 20 9 11 1012.3 1012.3 0.0
01/04:30am 13.1 8.4 3.2 51 4.4 NNW 17 22 9 12 1012.3 1012.3 0.0
01/04:00am 13.0 9.6 4.2 55 4.0 NNW 11 15 6 8 1012.2 1012.2 0.0
01/03:30am 13.1 9.4 4.3 55 4.0 NW 13 17 7 9 1012.5 1012.5 0.0
01/03:00am 15.4 12.2 2.9 43 5.6 NNW 9 17 5 9 1012.8 1012.8 0.0
01/02:30am 15.2 11.8 4.0 47 5.2 N 11 13 6 7 1013.2 1013.2 0.0
01/02:00am 13.0 9.7 4.4 56 3.9 NW 11 13 6 7 1013.7 1013.7 0.0
01/01:30am 13.4 10.1 4.3 54 4.2 NNW 11 13 6 7 1014.1 1014.1 0.0
01/01:00am 13.4 10.1 4.3 54 4.2 NNW 11 13 6 7 1014.3 1014.3 0.0
01/12:30am 12.8 9.3 3.7 54 4.1 N 11 13 6 7 1014.6 1014.6 0.0
01/12:00am 13.8 9.9 3.3 49 4.7 NNW 13 15 7 8 1014.8 1014.8 0.0
 
Date/Time
CST
Temp
°C
App
Temp
°C
Dew
Point
Rel
Hum
%
Delta-T
°C
Wind Press
QNH
hPa
Press
MSL
hPa
Rain
since 9 am
mm
Dir
 
Spd
km/h
Gust
km/h
Spd
kts
Gust
kts
31/11:30pm 14.9 10.9 3.1 45 5.3 N 13 17 7 9 1015.1 1015.1 0.0
31/11:00pm 13.4 9.8 2.9 49 4.7 N 11 15 6 8 1015.4 1015.4 0.0
31/10:30pm 14.6 10.5 2.5 44 5.4 N 13 15 7 8 1015.6 1015.6 0.0
31/10:00pm 16.0 11.5 2.4 40 6.1 N 15 20 8 11 1015.9 1015.9 0.0
31/09:30pm 17.1 11.9 2.3 37 6.7 N 19 24 10 13 1015.9 1015.9 0.0
31/09:00pm 15.1 11.1 3.0 44 5.4 N 13 15 7 8 1016.0 1016.0 0.0
31/08:30pm 15.2 11.3 3.4 45 5.4 N 13 17 7 9 1016.0 1016.0 0.0

Other Formats:

Comma delimited format used in spreadsheet applications
http://www.bom.gov.au/fwo/IDS60801/IDS60801.95664.axf

JavaScript Object Notation format (JSON) in row-major order
http://www.bom.gov.au/fwo/IDS60801/IDS60801.95664.json